sensor_id;sensor_type;location;lat;lon;timestamp;P1;durP1;ratioP1;P2;durP2;ratioP2
21927;SDS011;11128;51.096;17.190;2023-06-26T00:04:33;5.10;;;3.67;;
21927;SDS011;11128;51.096;17.190;2023-06-26T00:09:36;5.63;;;3.60;;
21927;SDS011;11128;51.096;17.190;2023-06-26T00:14:37;6.90;;;3.58;;
21927;SDS011;11128;51.096;17.190;2023-06-26T00:19:39;4.32;;;3.42;;
21927;SDS011;11128;51.096;17.190;2023-06-26T00:24:40;4.95;;;3.42;;
21927;SDS011;11128;51.096;17.190;2023-06-26T00:29:41;5.78;;;3.80;;
21927;SDS011;11128;51.096;17.190;2023-06-26T00:34:42;8.60;;;3.75;;
21927;SDS011;11128;51.096;17.190;2023-06-26T00:39:44;5.50;;;3.45;;
21927;SDS011;11128;51.096;17.190;2023-06-26T00:44:45;6.43;;;3.80;;
21927;SDS011;11128;51.096;17.190;2023-06-26T00:49:47;5.47;;;3.85;;
21927;SDS011;11128;51.096;17.190;2023-06-26T00:54:48;7.57;;;4.25;;
21927;SDS011;11128;51.096;17.190;2023-06-26T00:59:51;4.55;;;3.13;;
21927;SDS011;11128;51.096;17.190;2023-06-26T01:04:53;4.88;;;3.75;;
21927;SDS011;11128;51.096;17.190;2023-06-26T01:09:54;5.50;;;3.78;;
21927;SDS011;11128;51.096;17.190;2023-06-26T01:14:56;7.65;;;3.38;;
21927;SDS011;11128;51.096;17.190;2023-06-26T01:20:01;5.85;;;3.80;;
21927;SDS011;11128;51.096;17.190;2023-06-26T01:30:30;4.72;;;3.08;;
21927;SDS011;11128;51.096;17.190;2023-06-26T01:35:33;4.95;;;3.08;;
21927;SDS011;11128;51.096;17.190;2023-06-26T01:40:35;8.18;;;3.65;;
21927;SDS011;11128;51.096;17.190;2023-06-26T01:45:36;5.20;;;3.15;;
21927;SDS011;11128;51.096;17.190;2023-06-26T01:50:39;5.13;;;3.20;;
21927;SDS011;11128;51.096;17.190;2023-06-26T01:55:53;5.95;;;3.33;;
21927;SDS011;11128;51.096;17.190;2023-06-26T02:00:56;4.63;;;3.50;;
21927;SDS011;11128;51.096;17.190;2023-06-26T02:05:57;6.03;;;3.38;;
21927;SDS011;11128;51.096;17.190;2023-06-26T02:10:58;4.43;;;2.90;;
21927;SDS011;11128;51.096;17.190;2023-06-26T02:15:59;4.68;;;3.13;;
21927;SDS011;11128;51.096;17.190;2023-06-26T02:21:02;5.30;;;3.05;;
21927;SDS011;11128;51.096;17.190;2023-06-26T02:26:04;7.72;;;3.65;;
21927;SDS011;11128;51.096;17.190;2023-06-26T02:31:05;8.98;;;3.90;;
21927;SDS011;11128;51.096;17.190;2023-06-26T02:36:06;8.57;;;3.50;;
21927;SDS011;11128;51.096;17.190;2023-06-26T02:41:08;7.50;;;4.38;;
21927;SDS011;11128;51.096;17.190;2023-06-26T02:46:09;10.20;;;3.72;;
21927;SDS011;11128;51.096;17.190;2023-06-26T02:51:10;7.05;;;3.78;;
21927;SDS011;11128;51.096;17.190;2023-06-26T02:56:11;9.45;;;3.83;;
21927;SDS011;11128;51.096;17.190;2023-06-26T03:01:12;5.88;;;3.45;;
21927;SDS011;11128;51.096;17.190;2023-06-26T03:06:14;6.57;;;3.45;;
21927;SDS011;11128;51.096;17.190;2023-06-26T03:11:16;9.63;;;4.00;;
21927;SDS011;11128;51.096;17.190;2023-06-26T03:16:17;5.30;;;3.45;;
21927;SDS011;11128;51.096;17.190;2023-06-26T03:21:18;5.35;;;3.25;;
21927;SDS011;11128;51.096;17.190;2023-06-26T03:26:19;5.95;;;3.28;;
21927;SDS011;11128;51.096;17.190;2023-06-26T03:31:21;5.07;;;2.97;;
21927;SDS011;11128;51.096;17.190;2023-06-26T03:36:22;5.80;;;3.65;;
21927;SDS011;11128;51.096;17.190;2023-06-26T03:41:23;5.10;;;3.10;;
21927;SDS011;11128;51.096;17.190;2023-06-26T03:46:25;7.57;;;4.03;;
21927;SDS011;11128;51.096;17.190;2023-06-26T03:51:26;6.40;;;3.50;;
21927;SDS011;11128;51.096;17.190;2023-06-26T03:56:27;7.55;;;4.05;;
21927;SDS011;11128;51.096;17.190;2023-06-26T04:01:29;7.22;;;4.40;;
21927;SDS011;11128;51.096;17.190;2023-06-26T04:06:30;6.93;;;4.43;;
21927;SDS011;11128;51.096;17.190;2023-06-26T04:11:34;8.55;;;4.78;;
21927;SDS011;11128;51.096;17.190;2023-06-26T04:16:35;11.15;;;5.32;;
21927;SDS011;11128;51.096;17.190;2023-06-26T04:21:37;10.75;;;5.88;;
21927;SDS011;11128;51.096;17.190;2023-06-26T04:26:38;11.00;;;5.85;;
21927;SDS011;11128;51.096;17.190;2023-06-26T04:31:41;11.90;;;5.82;;
21927;SDS011;11128;51.096;17.190;2023-06-26T04:36:46;9.52;;;4.97;;
21927;SDS011;11128;51.096;17.190;2023-06-26T04:41:48;9.45;;;5.63;;
21927;SDS011;11128;51.096;17.190;2023-06-26T04:46:50;13.57;;;5.70;;
21927;SDS011;11128;51.096;17.190;2023-06-26T04:51:52;12.65;;;6.18;;
21927;SDS011;11128;51.096;17.190;2023-06-26T04:56:54;11.52;;;5.70;;
21927;SDS011;11128;51.096;17.190;2023-06-26T05:01:56;13.45;;;6.30;;
21927;SDS011;11128;51.096;17.190;2023-06-26T05:06:57;10.00;;;5.53;;
21927;SDS011;11128;51.096;17.190;2023-06-26T05:11:58;12.13;;;6.07;;
21927;SDS011;11128;51.096;17.190;2023-06-26T05:16:59;8.27;;;5.65;;
21927;SDS011;11128;51.096;17.190;2023-06-26T05:22:01;11.52;;;5.88;;
21927;SDS011;11128;51.096;17.190;2023-06-26T05:27:07;12.77;;;6.28;;
21927;SDS011;11128;51.096;17.190;2023-06-26T05:32:09;13.35;;;6.57;;
21927;SDS011;11128;51.096;17.190;2023-06-26T05:37:11;10.93;;;6.32;;
21927;SDS011;11128;51.096;17.190;2023-06-26T05:42:19;10.85;;;6.13;;
21927;SDS011;11128;51.096;17.190;2023-06-26T05:47:20;13.52;;;6.55;;
21927;SDS011;11128;51.096;17.190;2023-06-26T05:52:21;12.48;;;7.25;;
21927;SDS011;11128;51.096;17.190;2023-06-26T05:57:23;11.20;;;6.40;;
21927;SDS011;11128;51.096;17.190;2023-06-26T06:02:24;14.63;;;6.75;;
21927;SDS011;11128;51.096;17.190;2023-06-26T06:07:26;12.73;;;6.35;;
21927;SDS011;11128;51.096;17.190;2023-06-26T06:12:27;7.55;;;5.22;;
21927;SDS011;11128;51.096;17.190;2023-06-26T06:17:28;13.07;;;6.35;;
21927;SDS011;11128;51.096;17.190;2023-06-26T06:22:29;11.80;;;5.55;;
21927;SDS011;11128;51.096;17.190;2023-06-26T06:27:30;11.27;;;5.85;;
21927;SDS011;11128;51.096;17.190;2023-06-26T06:32:33;9.57;;;5.80;;
21927;SDS011;11128;51.096;17.190;2023-06-26T06:37:37;10.52;;;5.68;;
21927;SDS011;11128;51.096;17.190;2023-06-26T06:42:39;8.20;;;5.00;;
21927;SDS011;11128;51.096;17.190;2023-06-26T06:47:40;9.68;;;5.35;;
21927;SDS011;11128;51.096;17.190;2023-06-26T06:52:42;9.98;;;5.30;;
21927;SDS011;11128;51.096;17.190;2023-06-26T06:57:43;8.63;;;4.95;;
21927;SDS011;11128;51.096;17.190;2023-06-26T07:02:45;7.93;;;5.10;;
21927;SDS011;11128;51.096;17.190;2023-06-26T07:07:46;8.27;;;4.40;;
21927;SDS011;11128;51.096;17.190;2023-06-26T07:12:48;9.52;;;4.80;;
21927;SDS011;11128;51.096;17.190;2023-06-26T07:17:49;7.55;;;4.80;;
21927;SDS011;11128;51.096;17.190;2023-06-26T07:22:50;10.15;;;4.82;;
21927;SDS011;11128;51.096;17.190;2023-06-26T07:27:52;6.20;;;3.70;;
21927;SDS011;11128;51.096;17.190;2023-06-26T07:32:53;7.13;;;3.88;;
21927;SDS011;11128;51.096;17.190;2023-06-26T07:37:54;5.38;;;3.78;;
21927;SDS011;11128;51.096;17.190;2023-06-26T07:42:55;7.32;;;3.70;;
21927;SDS011;11128;51.096;17.190;2023-06-26T07:47:58;5.13;;;3.58;;
21927;SDS011;11128;51.096;17.190;2023-06-26T07:52:59;6.30;;;3.90;;
21927;SDS011;11128;51.096;17.190;2023-06-26T07:58:01;8.15;;;3.63;;
21927;SDS011;11128;51.096;17.190;2023-06-26T08:03:02;5.70;;;3.38;;
21927;SDS011;11128;51.096;17.190;2023-06-26T08:08:04;7.00;;;2.97;;
21927;SDS011;11128;51.096;17.190;2023-06-26T08:13:05;6.32;;;3.38;;
21927;SDS011;11128;51.096;17.190;2023-06-26T08:18:06;6.75;;;3.42;;
21927;SDS011;11128;51.096;17.190;2023-06-26T08:23:07;6.05;;;3.35;;
21927;SDS011;11128;51.096;17.190;2023-06-26T08:28:08;5.55;;;3.22;;
21927;SDS011;11128;51.096;17.190;2023-06-26T08:33:09;6.47;;;3.53;;
21927;SDS011;11128;51.096;17.190;2023-06-26T08:38:12;5.57;;;2.80;;
21927;SDS011;11128;51.096;17.190;2023-06-26T08:43:14;2.90;;;2.42;;
21927;SDS011;11128;51.096;17.190;2023-06-26T08:48:15;3.92;;;3.15;;
21927;SDS011;11128;51.096;17.190;2023-06-26T08:53:59;4.05;;;2.88;;
21927;SDS011;11128;51.096;17.190;2023-06-26T08:58:49;4.45;;;3.15;;
21927;SDS011;11128;51.096;17.190;2023-06-26T09:03:51;3.78;;;2.95;;
21927;SDS011;11128;51.096;17.190;2023-06-26T09:08:52;4.22;;;2.47;;
21927;SDS011;11128;51.096;17.190;2023-06-26T09:13:54;3.30;;;2.33;;
21927;SDS011;11128;51.096;17.190;2023-06-26T09:18:56;4.30;;;2.92;;
21927;SDS011;11128;51.096;17.190;2023-06-26T09:23:57;4.97;;;2.83;;
21927;SDS011;11128;51.096;17.190;2023-06-26T09:28:59;3.92;;;2.63;;
21927;SDS011;11128;51.096;17.190;2023-06-26T09:34:01;3.95;;;2.50;;
21927;SDS011;11128;51.096;17.190;2023-06-26T09:39:03;5.13;;;2.95;;
21927;SDS011;11128;51.096;17.190;2023-06-26T09:44:10;4.03;;;2.53;;
21927;SDS011;11128;51.096;17.190;2023-06-26T09:49:13;3.17;;;2.38;;
21927;SDS011;11128;51.096;17.190;2023-06-26T09:54:15;3.63;;;2.25;;
21927;SDS011;11128;51.096;17.190;2023-06-26T09:59:18;4.40;;;2.67;;
21927;SDS011;11128;51.096;17.190;2023-06-26T10:04:21;3.92;;;2.72;;
21927;SDS011;11128;51.096;17.190;2023-06-26T10:09:23;4.80;;;2.70;;
21927;SDS011;11128;51.096;17.190;2023-06-26T10:14:29;3.60;;;2.67;;
21927;SDS011;11128;51.096;17.190;2023-06-26T10:19:34;2.42;;;2.17;;
21927;SDS011;11128;51.096;17.190;2023-06-26T10:24:37;3.72;;;2.50;;
21927;SDS011;11128;51.096;17.190;2023-06-26T10:29:42;3.25;;;2.35;;
21927;SDS011;11128;51.096;17.190;2023-06-26T10:34:45;3.13;;;2.58;;
21927;SDS011;11128;51.096;17.190;2023-06-26T10:45:20;3.58;;;2.70;;
21927;SDS011;11128;51.096;17.190;2023-06-26T10:50:25;4.60;;;2.47;;
21927;SDS011;11128;51.096;17.190;2023-06-26T10:55:36;3.35;;;2.42;;
21927;SDS011;11128;51.096;17.190;2023-06-26T11:00:37;2.97;;;2.50;;
21927;SDS011;11128;51.096;17.190;2023-06-26T11:06:08;3.50;;;2.33;;
21927;SDS011;11128;51.096;17.190;2023-06-26T11:11:13;2.90;;;2.13;;
21927;SDS011;11128;51.096;17.190;2023-06-26T11:16:14;3.03;;;2.45;;
21927;SDS011;11128;51.096;17.190;2023-06-26T11:21:16;3.13;;;2.40;;
21927;SDS011;11128;51.096;17.190;2023-06-26T11:26:21;5.18;;;2.58;;
21927;SDS011;11128;51.096;17.190;2023-06-26T11:36:26;3.70;;;2.40;;
21927;SDS011;11128;51.096;17.190;2023-06-26T11:41:28;2.42;;;2.08;;
21927;SDS011;11128;51.096;17.190;2023-06-26T11:46:31;3.45;;;2.95;;
21927;SDS011;11128;51.096;17.190;2023-06-26T11:51:34;4.53;;;2.50;;
21927;SDS011;11128;51.096;17.190;2023-06-26T11:56:39;3.08;;;2.40;;
21927;SDS011;11128;51.096;17.190;2023-06-26T12:01:43;4.15;;;2.80;;
21927;SDS011;11128;51.096;17.190;2023-06-26T12:06:46;2.95;;;2.60;;
21927;SDS011;11128;51.096;17.190;2023-06-26T12:11:50;3.28;;;2.20;;
21927;SDS011;11128;51.096;17.190;2023-06-26T12:16:53;4.68;;;2.70;;
21927;SDS011;11128;51.096;17.190;2023-06-26T12:21:55;2.83;;;2.20;;
21927;SDS011;11128;51.096;17.190;2023-06-26T12:26:56;3.90;;;2.35;;
21927;SDS011;11128;51.096;17.190;2023-06-26T12:31:58;2.53;;;2.17;;
21927;SDS011;11128;51.096;17.190;2023-06-26T12:37:09;3.00;;;2.08;;
21927;SDS011;11128;51.096;17.190;2023-06-26T12:42:13;2.88;;;2.15;;
21927;SDS011;11128;51.096;17.190;2023-06-26T12:47:24;4.80;;;2.50;;
21927;SDS011;11128;51.096;17.190;2023-06-26T12:52:29;2.42;;;2.15;;
21927;SDS011;11128;51.096;17.190;2023-06-26T12:57:30;3.33;;;2.17;;
21927;SDS011;11128;51.096;17.190;2023-06-26T13:02:31;3.22;;;2.20;;
21927;SDS011;11128;51.096;17.190;2023-06-26T13:07:33;2.85;;;2.38;;
21927;SDS011;11128;51.096;17.190;2023-06-26T13:12:34;2.50;;;2.30;;
21927;SDS011;11128;51.096;17.190;2023-06-26T13:17:35;3.22;;;2.42;;
21927;SDS011;11128;51.096;17.190;2023-06-26T13:22:36;3.55;;;2.20;;
21927;SDS011;11128;51.096;17.190;2023-06-26T13:27:38;3.47;;;2.50;;
21927;SDS011;11128;51.096;17.190;2023-06-26T13:32:39;2.45;;;2.15;;
21927;SDS011;11128;51.096;17.190;2023-06-26T13:37:41;2.40;;;1.92;;
21927;SDS011;11128;51.096;17.190;2023-06-26T13:42:43;3.45;;;2.42;;
21927;SDS011;11128;51.096;17.190;2023-06-26T13:47:44;2.30;;;2.10;;
21927;SDS011;11128;51.096;17.190;2023-06-26T13:52:46;3.22;;;2.15;;
21927;SDS011;11128;51.096;17.190;2023-06-26T13:57:47;3.00;;;2.20;;
21927;SDS011;11128;51.096;17.190;2023-06-26T14:02:49;4.20;;;2.08;;
21927;SDS011;11128;51.096;17.190;2023-06-26T14:07:51;2.80;;;2.10;;
21927;SDS011;11128;51.096;17.190;2023-06-26T14:12:52;3.28;;;2.33;;
21927;SDS011;11128;51.096;17.190;2023-06-26T14:17:53;3.70;;;2.17;;
21927;SDS011;11128;51.096;17.190;2023-06-26T14:22:56;3.10;;;2.58;;
21927;SDS011;11128;51.096;17.190;2023-06-26T14:27:58;3.03;;;2.00;;
21927;SDS011;11128;51.096;17.190;2023-06-26T14:32:59;3.60;;;2.30;;
21927;SDS011;11128;51.096;17.190;2023-06-26T14:38:00;2.47;;;1.77;;
21927;SDS011;11128;51.096;17.190;2023-06-26T14:43:02;2.83;;;2.28;;
21927;SDS011;11128;51.096;17.190;2023-06-26T14:48:03;5.20;;;2.13;;
21927;SDS011;11128;51.096;17.190;2023-06-26T14:53:04;2.92;;;1.90;;
21927;SDS011;11128;51.096;17.190;2023-06-26T14:58:08;2.67;;;1.90;;
21927;SDS011;11128;51.096;17.190;2023-06-26T15:03:09;2.60;;;2.15;;
21927;SDS011;11128;51.096;17.190;2023-06-26T15:08:10;3.05;;;2.35;;
21927;SDS011;11128;51.096;17.190;2023-06-26T15:13:12;3.35;;;2.03;;
21927;SDS011;11128;51.096;17.190;2023-06-26T15:18:13;6.20;;;2.28;;
21927;SDS011;11128;51.096;17.190;2023-06-26T15:23:15;3.08;;;2.72;;
21927;SDS011;11128;51.096;17.190;2023-06-26T15:28:16;3.42;;;1.98;;
21927;SDS011;11128;51.096;17.190;2023-06-26T15:33:17;2.50;;;2.30;;
21927;SDS011;11128;51.096;17.190;2023-06-26T15:38:19;3.15;;;2.33;;
21927;SDS011;11128;51.096;17.190;2023-06-26T15:43:20;2.20;;;1.98;;
21927;SDS011;11128;51.096;17.190;2023-06-26T15:48:21;3.00;;;2.47;;
21927;SDS011;11128;51.096;17.190;2023-06-26T15:53:35;4.43;;;2.42;;
21927;SDS011;11128;51.096;17.190;2023-06-26T15:58:39;2.75;;;2.35;;
21927;SDS011;11128;51.096;17.190;2023-06-26T16:03:45;2.60;;;2.17;;
21927;SDS011;11128;51.096;17.190;2023-06-26T16:08:46;2.95;;;2.40;;
21927;SDS011;11128;51.096;17.190;2023-06-26T16:13:49;3.50;;;2.33;;
21927;SDS011;11128;51.096;17.190;2023-06-26T16:18:50;3.47;;;2.58;;
21927;SDS011;11128;51.096;17.190;2023-06-26T16:23:51;3.65;;;2.10;;
21927;SDS011;11128;51.096;17.190;2023-06-26T16:28:53;2.67;;;2.33;;
21927;SDS011;11128;51.096;17.190;2023-06-26T16:33:54;4.18;;;2.30;;
21927;SDS011;11128;51.096;17.190;2023-06-26T16:38:55;3.05;;;2.40;;
21927;SDS011;11128;51.096;17.190;2023-06-26T16:43:57;4.93;;;2.55;;
21927;SDS011;11128;51.096;17.190;2023-06-26T16:48:58;3.30;;;2.33;;
21927;SDS011;11128;51.096;17.190;2023-06-26T16:53:59;5.38;;;3.00;;
21927;SDS011;11128;51.096;17.190;2023-06-26T16:59:01;3.03;;;2.40;;
21927;SDS011;11128;51.096;17.190;2023-06-26T17:04:02;3.80;;;2.42;;
21927;SDS011;11128;51.096;17.190;2023-06-26T17:09:03;4.25;;;3.22;;
21927;SDS011;11128;51.096;17.190;2023-06-26T17:14:04;4.43;;;3.08;;
21927;SDS011;11128;51.096;17.190;2023-06-26T17:19:05;3.50;;;3.00;;
21927;SDS011;11128;51.096;17.190;2023-06-26T17:24:07;3.55;;;2.38;;
21927;SDS011;11128;51.096;17.190;2023-06-26T17:29:08;6.10;;;2.60;;
21927;SDS011;11128;51.096;17.190;2023-06-26T17:34:10;4.07;;;2.30;;
21927;SDS011;11128;51.096;17.190;2023-06-26T17:39:11;7.22;;;2.92;;
21927;SDS011;11128;51.096;17.190;2023-06-26T17:44:12;3.42;;;2.92;;
21927;SDS011;11128;51.096;17.190;2023-06-26T17:49:13;3.30;;;2.70;;
21927;SDS011;11128;51.096;17.190;2023-06-26T17:54:15;8.48;;;3.58;;
21927;SDS011;11128;51.096;17.190;2023-06-26T17:59:17;11.32;;;2.90;;
21927;SDS011;11128;51.096;17.190;2023-06-26T18:04:19;8.73;;;4.32;;
21927;SDS011;11128;51.096;17.190;2023-06-26T18:09:20;8.02;;;2.60;;
21927;SDS011;11128;51.096;17.190;2023-06-26T18:14:22;4.18;;;2.97;;
21927;SDS011;11128;51.096;17.190;2023-06-26T18:19:23;5.85;;;3.58;;
21927;SDS011;11128;51.096;17.190;2023-06-26T18:24:24;38.55;;;17.95;;
21927;SDS011;11128;51.096;17.190;2023-06-26T18:29:25;39.63;;;18.52;;
21927;SDS011;11128;51.096;17.190;2023-06-26T18:34:27;13.18;;;5.97;;
21927;SDS011;11128;51.096;17.190;2023-06-26T18:39:29;7.88;;;4.10;;
21927;SDS011;11128;51.096;17.190;2023-06-26T18:44:30;6.82;;;4.05;;
21927;SDS011;11128;51.096;17.190;2023-06-26T18:49:31;7.95;;;3.90;;
21927;SDS011;11128;51.096;17.190;2023-06-26T18:54:32;6.07;;;3.92;;
21927;SDS011;11128;51.096;17.190;2023-06-26T18:59:33;4.72;;;3.38;;
21927;SDS011;11128;51.096;17.190;2023-06-26T19:04:35;9.57;;;2.97;;
21927;SDS011;11128;51.096;17.190;2023-06-26T19:09:37;4.82;;;3.00;;
21927;SDS011;11128;51.096;17.190;2023-06-26T19:14:38;5.18;;;3.60;;
21927;SDS011;11128;51.096;17.190;2023-06-26T19:19:41;6.63;;;3.40;;
21927;SDS011;11128;51.096;17.190;2023-06-26T19:24:42;7.30;;;3.30;;
21927;SDS011;11128;51.096;17.190;2023-06-26T19:29:44;8.45;;;4.38;;
21927;SDS011;11128;51.096;17.190;2023-06-26T19:34:45;4.32;;;3.38;;
21927;SDS011;11128;51.096;17.190;2023-06-26T19:39:47;5.22;;;3.53;;
21927;SDS011;11128;51.096;17.190;2023-06-26T19:44:48;4.03;;;3.20;;
21927;SDS011;11128;51.096;17.190;2023-06-26T19:49:49;4.05;;;2.90;;
21927;SDS011;11128;51.096;17.190;2023-06-26T19:54:51;5.13;;;3.38;;
21927;SDS011;11128;51.096;17.190;2023-06-26T19:59:53;6.28;;;3.88;;
21927;SDS011;11128;51.096;17.190;2023-06-26T20:04:55;7.13;;;3.42;;
21927;SDS011;11128;51.096;17.190;2023-06-26T20:09:56;6.70;;;2.25;;
21927;SDS011;11128;51.096;17.190;2023-06-26T20:14:57;4.72;;;2.20;;
21927;SDS011;11128;51.096;17.190;2023-06-26T20:19:58;5.88;;;2.00;;
21927;SDS011;11128;51.096;17.190;2023-06-26T20:25:00;9.73;;;2.80;;
21927;SDS011;11128;51.096;17.190;2023-06-26T20:30:01;6.38;;;2.70;;
21927;SDS011;11128;51.096;17.190;2023-06-26T20:35:03;5.63;;;2.75;;
21927;SDS011;11128;51.096;17.190;2023-06-26T20:40:04;6.05;;;2.42;;
21927;SDS011;11128;51.096;17.190;2023-06-26T20:45:06;5.63;;;2.72;;
21927;SDS011;11128;51.096;17.190;2023-06-26T20:50:08;6.18;;;2.22;;
21927;SDS011;11128;51.096;17.190;2023-06-26T20:55:10;3.70;;;1.98;;
21927;SDS011;11128;51.096;17.190;2023-06-26T21:00:12;4.13;;;2.20;;
21927;SDS011;11128;51.096;17.190;2023-06-26T21:05:14;5.22;;;2.05;;
21927;SDS011;11128;51.096;17.190;2023-06-26T21:10:15;4.20;;;2.15;;
21927;SDS011;11128;51.096;17.190;2023-06-26T21:15:19;3.55;;;2.15;;
21927;SDS011;11128;51.096;17.190;2023-06-26T21:20:20;3.97;;;2.00;;
21927;SDS011;11128;51.096;17.190;2023-06-26T21:25:22;1.88;;;1.67;;
21927;SDS011;11128;51.096;17.190;2023-06-26T21:30:23;3.03;;;1.90;;
21927;SDS011;11128;51.096;17.190;2023-06-26T21:35:24;3.35;;;2.00;;
21927;SDS011;11128;51.096;17.190;2023-06-26T21:40:26;3.17;;;1.92;;
21927;SDS011;11128;51.096;17.190;2023-06-26T21:45:27;3.20;;;2.30;;
21927;SDS011;11128;51.096;17.190;2023-06-26T21:50:29;4.10;;;2.38;;
21927;SDS011;11128;51.096;17.190;2023-06-26T21:55:30;3.75;;;2.42;;
21927;SDS011;11128;51.096;17.190;2023-06-26T22:00:32;4.78;;;2.83;;
21927;SDS011;11128;51.096;17.190;2023-06-26T22:05:33;5.55;;;3.03;;
21927;SDS011;11128;51.096;17.190;2023-06-26T22:10:34;6.80;;;3.60;;
21927;SDS011;11128;51.096;17.190;2023-06-26T22:15:35;4.20;;;3.08;;
21927;SDS011;11128;51.096;17.190;2023-06-26T22:20:37;5.68;;;3.55;;
21927;SDS011;11128;51.096;17.190;2023-06-26T22:25:38;4.45;;;3.60;;
21927;SDS011;11128;51.096;17.190;2023-06-26T22:30:39;9.90;;;3.75;;
21927;SDS011;11128;51.096;17.190;2023-06-26T22:35:41;6.75;;;3.58;;
21927;SDS011;11128;51.096;17.190;2023-06-26T22:40:42;5.97;;;3.92;;
21927;SDS011;11128;51.096;17.190;2023-06-26T22:45:43;6.47;;;3.88;;
21927;SDS011;11128;51.096;17.190;2023-06-26T22:50:46;4.82;;;3.60;;
21927;SDS011;11128;51.096;17.190;2023-06-26T22:55:47;6.75;;;3.80;;
21927;SDS011;11128;51.096;17.190;2023-06-26T23:00:48;5.78;;;3.95;;
21927;SDS011;11128;51.096;17.190;2023-06-26T23:05:50;8.38;;;4.10;;
21927;SDS011;11128;51.096;17.190;2023-06-26T23:10:57;4.97;;;3.33;;
21927;SDS011;11128;51.096;17.190;2023-06-26T23:15:59;6.38;;;3.58;;
21927;SDS011;11128;51.096;17.190;2023-06-26T23:21:03;5.20;;;3.92;;
21927;SDS011;11128;51.096;17.190;2023-06-26T23:26:05;7.45;;;3.90;;
21927;SDS011;11128;51.096;17.190;2023-06-26T23:31:06;5.00;;;3.80;;
21927;SDS011;11128;51.096;17.190;2023-06-26T23:36:08;6.63;;;4.45;;
21927;SDS011;11128;51.096;17.190;2023-06-26T23:41:09;5.07;;;3.88;;
21927;SDS011;11128;51.096;17.190;2023-06-26T23:46:11;4.88;;;3.80;;
21927;SDS011;11128;51.096;17.190;2023-06-26T23:51:14;6.70;;;4.30;;
21927;SDS011;11128;51.096;17.190;2023-06-26T23:56:15;6.80;;;4.00;;
